createdAt,value
2022-09-28T20:43:40.260Z,13.76
2022-09-28T20:46:10.376Z,13.46
2022-09-28T20:48:37.878Z,13.59
2022-09-28T20:51:13.386Z,13.11
2022-09-28T20:53:41.693Z,13.19
2022-09-28T20:56:13.232Z,13.48
2022-09-28T20:58:41.409Z,12.89
2022-09-28T21:01:08.057Z,12.97
2022-09-28T21:03:35.500Z,13.07
2022-09-28T21:06:03.016Z,12.77
2022-09-28T21:08:30.954Z,13.42
2022-09-28T21:10:57.810Z,13.20
2022-09-28T21:13:26.243Z,13.77
2022-09-28T21:15:52.945Z,13.97
2022-09-28T21:18:20.949Z,14.18
2022-09-28T21:20:49.428Z,14.10
2022-09-28T21:23:20.547Z,14.03
2022-09-28T21:25:49.316Z,13.48
2022-09-28T21:28:17.422Z,13.83
2022-09-28T21:30:45.634Z,12.61
2022-09-28T21:33:12.226Z,12.55
2022-09-28T21:35:39.306Z,12.66
2022-09-28T21:38:05.944Z,12.51
2022-09-28T21:40:32.674Z,12.49
2022-09-28T21:42:59.270Z,12.45
2022-09-28T21:45:25.904Z,12.05
2022-09-28T21:47:53.533Z,11.95
2022-09-28T21:50:24.440Z,11.68
2022-09-28T21:52:53.169Z,11.65
2022-09-28T21:55:21.964Z,11.99
2022-09-28T21:57:53.058Z,11.97
2022-09-28T22:00:23.185Z,11.80
2022-09-28T22:02:50.967Z,11.63
2022-09-28T22:05:19.139Z,11.74
2022-09-28T22:07:45.747Z,11.66
2022-09-28T22:10:14.508Z,11.82
2022-09-28T22:12:41.334Z,11.73
2022-09-28T22:15:08.695Z,12.06
2022-09-28T22:17:37.994Z,12.27
2022-09-28T22:20:05.594Z,12.32
2022-09-28T22:22:32.287Z,12.32
2022-09-28T22:24:59.016Z,12.21
2022-09-28T22:27:25.723Z,12.11
2022-09-28T22:29:52.324Z,12.02
2022-09-28T22:32:18.928Z,11.63
2022-09-28T22:34:45.510Z,11.30
2022-09-28T22:37:12.060Z,11.40
2022-09-28T22:39:41.004Z,11.30
2022-09-28T22:42:08.269Z,11.33
2022-09-28T22:44:35.858Z,11.31
2022-09-28T22:47:03.185Z,11.36
2022-09-28T22:49:29.905Z,11.04
2022-09-28T22:51:56.557Z,10.97
2022-09-28T22:54:23.178Z,11.04
2022-09-28T22:56:49.726Z,10.97
2022-09-28T22:59:16.300Z,10.93
2022-09-28T23:01:43.168Z,10.93
2022-09-28T23:04:09.828Z,11.20
2022-09-28T23:06:36.671Z,11.02
2022-09-28T23:09:03.612Z,10.94
2022-09-28T23:11:30.251Z,10.93
2022-09-28T23:13:59.211Z,10.61
2022-09-28T23:16:26.624Z,10.53
2022-09-28T23:18:55.108Z,10.39
2022-09-28T23:21:24.481Z,10.30
2022-09-28T23:23:54.006Z,10.31
2022-09-28T23:26:23.792Z,10.22
2022-09-28T23:28:51.205Z,10.36
2022-09-28T23:31:20.747Z,10.16
2022-09-28T23:33:47.731Z,10.28
2022-09-28T23:36:15.064Z,10.11
2022-09-28T23:38:41.677Z,10.22
2022-09-28T23:41:09.009Z,10.13
2022-09-28T23:43:36.264Z,10.14
2022-09-28T23:46:04.672Z,10.02
2022-09-28T23:48:31.833Z,10.00
2022-09-28T23:50:58.504Z,10.10
2022-09-28T23:53:25.263Z,9.93
2022-09-28T23:55:51.933Z,9.88
2022-09-28T23:58:18.689Z,9.79
